PWSweather.com
Personal Weather Stations
Station Observations
LW1DRJ
MorenoAR 17441

MorenoAR 17441

Lat: -34.6340099, Lon: -58.791382

Elevation: 19

Station Type: Fine Offset

http://www.lw1drj.com.ar/clima

Latest ConditionsUpdated 2:40:00 PM GMT-03:57 Tuesday, Nov 12, 2019
Currently Today's Max Today's Min Today's Average
Temperature 85.8°F29.9°C 85.8°F29.9°C 62.4°F16.9°C 69.3°F20.7°C
Dew Point 62.0°F16.7°C 64.8°F18.2°C 59.0°F15.0°C 62.6°F17.0°C
Winds 2.2 mph E3.5 kmh E 7.6 mph -12.2 kmh - - 4.1 mph 6.6 kmh
Wind Gusts 4.5 mph7.2 kmh 19.0 mph30.6 kmh - -
Humidity 45% 99% 45% 81%
Pressure 29.57 in1001.4 mb 29.75 in1007.5 mb 29.57 in1001.4 mb -
Hour Temp Dew Point Humidity Winds Wind Gusts Pressure Precip Precip Rate Daily Precip Total
02:40 PM 85.8°F29.9°C 62.0°F16.7°C 45% 2.2 mph E3.5 kmh E 4.5 mph7.2 kmh 29.57 in1001.4 mb 0.00 in0.0 mm 0.00 in0.0 mm 0.00 in0.0 mm
02:20 PM 85.1°F29.5°C 61.4°F16.3°C 45% 3.8 mph ESE6.1 kmh ESE 9.2 mph14.8 kmh 29.58 in1001.7 mb 0.00 in0.0 mm 0.00 in0.0 mm 0.00 in0.0 mm
02:00 PM 83.7°F28.7°C 61.9°F16.6°C 48% 4.5 mph SE7.2 kmh SE 9.2 mph14.8 kmh 29.59 in1002.0 mb 0.00 in0.0 mm 0.00 in0.0 mm 0.00 in0.0 mm
01:40 PM 83.8°F28.8°C 63.2°F17.3°C 50% Calm Calm 4.5 mph7.2 kmh 29.59 in1002.0 mb 0.00 in0.0 mm 0.00 in0.0 mm 0.00 in0.0 mm
01:20 PM 83.5°F28.6°C 62.3°F16.8°C 49% 6.9 mph ESE11.1 kmh ESE 11.4 mph18.3 kmh 29.61 in1002.7 mb 0.00 in0.0 mm 0.00 in0.0 mm 0.00 in0.0 mm
01:00 PM 84.0°F28.9°C 62.8°F17.1°C 49% 2.2 mph N3.5 kmh N 7.6 mph12.2 kmh 29.63 in1003.4 mb 0.00 in0.0 mm 0.00 in0.0 mm 0.00 in0.0 mm
12:40 PM 83.1°F28.4°C 64.2°F17.9°C 53% 2.2 mph NNW3.5 kmh NNW 10.7 mph17.2 kmh 29.64 in1003.7 mb 0.00 in0.0 mm 0.00 in0.0 mm 0.00 in0.0 mm
12:20 PM 80.8°F27.1°C 64.1°F17.8°C 57% Calm Calm 11.4 mph18.3 kmh 29.65 in1004.1 mb 0.00 in0.0 mm 0.00 in0.0 mm 0.00 in0.0 mm
12:00 PM 80.4°F26.9°C 64.8°F18.2°C 59% Calm Calm 12.1 mph19.5 kmh 29.67 in1004.7 mb 0.00 in0.0 mm 0.00 in0.0 mm 0.00 in0.0 mm
11:40 AM 79.5°F26.4°C 63.9°F17.7°C 59% 6.9 mph E11.1 kmh E 10.7 mph17.2 kmh 29.68 in1005.1 mb 0.00 in0.0 mm 0.00 in0.0 mm 0.00 in0.0 mm
11:20 AM 78.8°F26.0°C 64.7°F18.2°C 62% 2.2 mph E3.5 kmh E 7.6 mph12.2 kmh 29.68 in1005.1 mb 0.00 in0.0 mm 0.00 in0.0 mm 0.00 in0.0 mm
11:00 AM 77.4°F25.2°C 64.2°F17.9°C 64% 3.8 mph NE6.1 kmh NE 11.4 mph18.3 kmh 29.69 in1005.4 mb 0.00 in0.0 mm 0.00 in0.0 mm 0.00 in0.0 mm
10:40 AM 75.7°F24.3°C 64.0°F17.8°C 67% 5.4 mph NE8.7 kmh NE 13.6 mph21.9 kmh 29.70 in1005.8 mb 0.00 in0.0 mm 0.00 in0.0 mm 0.00 in0.0 mm
10:20 AM 74.7°F23.7°C 64.2°F17.9°C 70% 3.8 mph NNE6.1 kmh NNE 9.8 mph15.8 kmh 29.71 in1006.1 mb 0.00 in0.0 mm 0.00 in0.0 mm 0.00 in0.0 mm
10:00 AM 73.8°F23.2°C 64.2°F17.9°C 72% 3.1 mph NE5.0 kmh NE 15.9 mph25.6 kmh 29.71 in1006.1 mb 0.00 in0.0 mm 0.00 in0.0 mm 0.00 in0.0 mm
09:40 AM 73.4°F23.0°C 64.2°F17.9°C 73% 1.6 mph NNE2.6 kmh NNE 13.6 mph21.9 kmh 29.72 in1006.4 mb 0.00 in0.0 mm 0.00 in0.0 mm 0.00 in0.0 mm
09:20 AM 73.6°F23.1°C 64.0°F17.8°C 72% 5.4 mph ENE8.7 kmh ENE 14.5 mph23.3 kmh 29.73 in1006.8 mb 0.00 in0.0 mm 0.00 in0.0 mm 0.00 in0.0 mm
09:00 AM 71.4°F21.9°C 63.8°F17.7°C 77% 0.7 mph NE1.1 kmh NE 13.0 mph20.9 kmh 29.73 in1006.8 mb 0.00 in0.0 mm 0.00 in0.0 mm 0.00 in0.0 mm
08:40 AM 70.2°F21.2°C 63.3°F17.4°C 79% 3.1 mph ENE5.0 kmh ENE 12.1 mph19.5 kmh 29.73 in1006.8 mb 0.00 in0.0 mm 0.00 in0.0 mm 0.00 in0.0 mm
08:20 AM 69.6°F20.9°C 64.2°F17.9°C 83% 1.6 mph ENE2.6 kmh ENE 19.0 mph30.6 kmh 29.73 in1006.8 mb 0.00 in0.0 mm 0.00 in0.0 mm 0.00 in0.0 mm
08:00 AM 68.5°F20.3°C 63.8°F17.7°C 85% 3.8 mph ENE6.1 kmh ENE 18.3 mph29.5 kmh 29.73 in1006.8 mb 0.00 in0.0 mm 0.00 in0.0 mm 0.00 in0.0 mm
07:40 AM 68.2°F20.1°C 64.2°F17.9°C 87% 3.1 mph NE5.0 kmh NE 13.6 mph21.9 kmh 29.74 in1007.1 mb 0.00 in0.0 mm 0.00 in0.0 mm 0.00 in0.0 mm
07:20 AM 66.9°F19.4°C 64.5°F18.1°C 92% 3.8 mph NE6.1 kmh NE 15.2 mph24.5 kmh 29.75 in1007.5 mb 0.00 in0.0 mm 0.00 in0.0 mm 0.00 in0.0 mm
06:53 AM 65.3°F18.5°C 63.8°F17.7°C 95% 6.0 mph NE9.7 kmh NE 9.8 mph15.8 kmh 29.74 in1007.1 mb 0.00 in0.0 mm 0.00 in0.0 mm 0.00 in0.0 mm
06:43 AM 64.8°F18.2°C 64.5°F18.1°C 99% 3.8 mph SE6.1 kmh SE 8.3 mph13.4 kmh 29.74 in1007.1 mb 0.00 in0.0 mm 0.00 in0.0 mm 0.00 in0.0 mm
06:33 AM 63.7°F17.6°C 63.4°F17.4°C 99% 5.4 mph E8.7 kmh E 8.3 mph13.4 kmh 29.74 in1007.1 mb 0.00 in0.0 mm 0.00 in0.0 mm 0.00 in0.0 mm
06:23 AM 63.1°F17.3°C 62.9°F17.2°C 99% 3.8 mph SE6.1 kmh SE 6.0 mph9.7 kmh 29.75 in1007.5 mb 0.00 in0.0 mm 0.00 in0.0 mm 0.00 in0.0 mm
06:13 AM 62.6°F17.0°C 62.3°F16.8°C 99% 2.2 mph SE3.5 kmh SE 10.7 mph17.2 kmh 29.75 in1007.5 mb 0.00 in0.0 mm 0.00 in0.0 mm 0.00 in0.0 mm
06:03 AM 62.4°F16.9°C 62.1°F16.7°C 99% 6.9 mph E11.1 kmh E 10.7 mph17.2 kmh 29.75 in1007.5 mb 0.00 in0.0 mm 0.00 in0.0 mm 0.00 in0.0 mm
05:53 AM 62.6°F17.0°C 62.3°F16.8°C 99% 2.2 mph WSW3.5 kmh WSW 6.0 mph9.7 kmh 29.74 in1007.1 mb 0.00 in0.0 mm 0.00 in0.0 mm 0.00 in0.0 mm
05:43 AM 63.0°F17.2°C 62.7°F17.1°C 99% 3.8 mph SE6.1 kmh SE 6.9 mph11.1 kmh 29.75 in1007.5 mb 0.00 in0.0 mm 0.00 in0.0 mm 0.00 in0.0 mm
05:33 AM 63.1°F17.3°C 62.9°F17.2°C 99% 3.1 mph SE5.0 kmh SE 7.6 mph12.2 kmh 29.75 in1007.5 mb 0.00 in0.0 mm 0.00 in0.0 mm 0.00 in0.0 mm
05:23 AM 63.1°F17.3°C 62.9°F17.2°C 99% 3.1 mph E5.0 kmh E 7.6 mph12.2 kmh 29.74 in1007.1 mb 0.00 in0.0 mm 0.00 in0.0 mm 0.00 in0.0 mm
05:13 AM 63.1°F17.3°C 62.9°F17.2°C 99% 4.5 mph W7.2 kmh W 8.3 mph13.4 kmh 29.74 in1007.1 mb 0.00 in0.0 mm 0.00 in0.0 mm 0.00 in0.0 mm
05:03 AM 63.5°F17.5°C 63.2°F17.3°C 99% 3.8 mph SE6.1 kmh SE 8.3 mph13.4 kmh 29.74 in1007.1 mb 0.00 in0.0 mm 0.00 in0.0 mm 0.00 in0.0 mm
04:53 AM 64.0°F17.8°C 63.8°F17.7°C 99% 4.5 mph N7.2 kmh N 7.6 mph12.2 kmh 29.74 in1007.1 mb 0.00 in0.0 mm 0.00 in0.0 mm 0.00 in0.0 mm
04:43 AM 63.5°F17.5°C 62.9°F17.2°C 98% 3.1 mph E5.0 kmh E 9.8 mph15.8 kmh 29.74 in1007.1 mb 0.00 in0.0 mm 0.00 in0.0 mm 0.00 in0.0 mm
04:33 AM 64.4°F18.0°C 63.8°F17.7°C 98% 6.0 mph E9.7 kmh E 12.1 mph19.5 kmh 29.74 in1007.1 mb 0.00 in0.0 mm 0.00 in0.0 mm 0.00 in0.0 mm
04:23 AM 63.9°F17.7°C 63.0°F17.2°C 97% 6.9 mph SE11.1 kmh SE 12.1 mph19.5 kmh 29.75 in1007.5 mb 0.00 in0.0 mm 0.00 in0.0 mm 0.00 in0.0 mm
04:13 AM 63.5°F17.5°C 62.3°F16.8°C 96% 3.1 mph N5.0 kmh N 6.9 mph11.1 kmh 29.74 in1007.1 mb 0.00 in0.0 mm 0.00 in0.0 mm 0.00 in0.0 mm
04:03 AM 63.9°F17.7°C 62.7°F17.1°C 96% 2.2 mph SE3.5 kmh SE 6.0 mph9.7 kmh 29.74 in1007.1 mb 0.00 in0.0 mm 0.00 in0.0 mm 0.00 in0.0 mm
03:53 AM 63.9°F17.7°C 62.4°F16.9°C 95% 3.1 mph E5.0 kmh E 9.8 mph15.8 kmh 29.74 in1007.1 mb 0.00 in0.0 mm 0.00 in0.0 mm 0.00 in0.0 mm
03:43 AM 64.9°F18.3°C 63.2°F17.3°C 94% 5.4 mph E8.7 kmh E 9.8 mph15.8 kmh 29.74 in1007.1 mb 0.00 in0.0 mm 0.00 in0.0 mm 0.00 in0.0 mm
03:33 AM 64.4°F18.0°C 62.6°F17.0°C 94% 6.0 mph E9.7 kmh E 9.2 mph14.8 kmh 29.74 in1007.1 mb 0.00 in0.0 mm 0.00 in0.0 mm 0.00 in0.0 mm
03:23 AM 64.6°F18.1°C 62.5°F16.9°C 93% 1.6 mph E2.6 kmh E 8.3 mph13.4 kmh 29.74 in1007.1 mb 0.00 in0.0 mm 0.00 in0.0 mm 0.00 in0.0 mm
03:13 AM 65.1°F18.4°C 62.7°F17.1°C 92% 5.4 mph SE8.7 kmh SE 8.3 mph13.4 kmh 29.75 in1007.5 mb 0.00 in0.0 mm 0.00 in0.0 mm 0.00 in0.0 mm
03:03 AM 64.2°F17.9°C 61.5°F16.4°C 91% 3.1 mph E5.0 kmh E 9.2 mph14.8 kmh 29.74 in1007.1 mb 0.00 in0.0 mm 0.00 in0.0 mm 0.00 in0.0 mm
02:53 AM 64.6°F18.1°C 61.6°F16.4°C 90% 6.0 mph NE9.7 kmh NE 9.2 mph14.8 kmh 29.74 in1007.1 mb 0.00 in0.0 mm 0.00 in0.0 mm 0.00 in0.0 mm
02:43 AM 65.8°F18.8°C 62.5°F16.9°C 89% 3.8 mph E6.1 kmh E 11.4 mph18.3 kmh 29.74 in1007.1 mb 0.00 in0.0 mm 0.00 in0.0 mm 0.00 in0.0 mm
02:33 AM 65.1°F18.4°C 61.5°F16.4°C 88% 6.9 mph NNW11.1 kmh NNW 11.4 mph18.3 kmh 29.74 in1007.1 mb 0.00 in0.0 mm 0.00 in0.0 mm 0.00 in0.0 mm
02:23 AM 65.5°F18.6°C 61.5°F16.4°C 87% 4.5 mph E7.2 kmh E 8.3 mph13.4 kmh 29.74 in1007.1 mb 0.00 in0.0 mm 0.00 in0.0 mm 0.00 in0.0 mm
02:13 AM 65.8°F18.8°C 61.5°F16.4°C 86% 3.1 mph E5.0 kmh E 6.0 mph9.7 kmh 29.75 in1007.5 mb 0.00 in0.0 mm 0.00 in0.0 mm 0.00 in0.0 mm
02:03 AM 65.8°F18.8°C 61.2°F16.2°C 85% 3.1 mph E5.0 kmh E 13.6 mph21.9 kmh 29.75 in1007.5 mb 0.00 in0.0 mm 0.00 in0.0 mm 0.00 in0.0 mm
01:53 AM 66.6°F19.2°C 61.6°F16.4°C 84% 7.6 mph E12.2 kmh E 13.6 mph21.9 kmh 29.75 in1007.5 mb 0.00 in0.0 mm 0.00 in0.0 mm 0.00 in0.0 mm
01:43 AM 66.2°F19.0°C 60.9°F16.1°C 83% 6.0 mph SE9.7 kmh SE 10.7 mph17.2 kmh 29.75 in1007.5 mb 0.00 in0.0 mm 0.00 in0.0 mm 0.00 in0.0 mm
01:33 AM 66.2°F19.0°C 60.9°F16.1°C 83% 6.0 mph SE9.7 kmh SE 10.7 mph17.2 kmh 29.75 in1007.5 mb 0.00 in0.0 mm 0.00 in0.0 mm 0.00 in0.0 mm
01:23 AM 66.9°F19.4°C 61.2°F16.2°C 82% 3.1 mph S5.0 kmh S 10.7 mph17.2 kmh 29.75 in1007.5 mb 0.00 in0.0 mm 0.00 in0.0 mm 0.00 in0.0 mm
01:13 AM 67.3°F19.6°C 61.2°F16.2°C 81% 3.8 mph SE6.1 kmh SE 10.7 mph17.2 kmh 29.74 in1007.1 mb 0.00 in0.0 mm 0.00 in0.0 mm 0.00 in0.0 mm
01:03 AM 68.0°F20.0°C 61.2°F16.2°C 79% 7.6 mph E12.2 kmh E 14.5 mph23.3 kmh 29.74 in1007.1 mb 0.00 in0.0 mm 0.00 in0.0 mm 0.00 in0.0 mm
12:53 AM 68.0°F20.0°C 60.9°F16.1°C 78% 6.0 mph E9.7 kmh E 14.5 mph23.3 kmh 29.75 in1007.5 mb 0.00 in0.0 mm 0.00 in0.0 mm 0.00 in0.0 mm
12:43 AM 68.0°F20.0°C 60.5°F15.8°C 77% 6.9 mph NE11.1 kmh NE 11.4 mph18.3 kmh 29.75 in1007.5 mb 0.00 in0.0 mm 0.00 in0.0 mm 0.00 in0.0 mm
12:33 AM 67.8°F19.9°C 59.6°F15.3°C 75% 3.8 mph SE6.1 kmh SE 16.8 mph27.0 kmh 29.75 in1007.5 mb 0.00 in0.0 mm 0.00 in0.0 mm 0.00 in0.0 mm
12:23 AM 68.5°F20.3°C 59.9°F15.5°C 74% 6.9 mph NE11.1 kmh NE 16.8 mph27.0 kmh 29.75 in1007.5 mb 0.00 in0.0 mm 0.00 in0.0 mm 0.00 in0.0 mm
12:13 AM 68.0°F20.0°C 59.0°F15.0°C 73% 6.9 mph NE11.1 kmh NE 13.6 mph21.9 kmh 29.75 in1007.5 mb 0.00 in0.0 mm 0.00 in0.0 mm 0.00 in0.0 mm
12:03 AM 68.4°F20.2°C 59.4°F15.2°C 73% 3.1 mph E5.0 kmh E 5.4 mph8.7 kmh 29.75 in1007.5 mb 0.00 in0.0 mm 0.00 in0.0 mm 0.00 in0.0 mm